sensor_id;sensor_type;location;lat;lon;timestamp;P1;durP1;ratioP1;P2;durP2;ratioP2
20090;SDS011;10205;49.678;6.560;2023-03-31T00:02:14;4.97;;;1.77;;
20090;SDS011;10205;49.678;6.560;2023-03-31T00:04:41;4.68;;;2.20;;
20090;SDS011;10205;49.678;6.560;2023-03-31T00:07:10;3.05;;;1.60;;
20090;SDS011;10205;49.678;6.560;2023-03-31T00:09:40;7.30;;;2.20;;
20090;SDS011;10205;49.678;6.560;2023-03-31T00:12:10;8.13;;;2.25;;
20090;SDS011;10205;49.678;6.560;2023-03-31T00:14:37;5.82;;;1.90;;
20090;SDS011;10205;49.678;6.560;2023-03-31T00:17:06;5.07;;;1.90;;
20090;SDS011;10205;49.678;6.560;2023-03-31T00:19:35;5.07;;;1.85;;
20090;SDS011;10205;49.678;6.560;2023-03-31T00:22:04;4.40;;;1.83;;
20090;SDS011;10205;49.678;6.560;2023-03-31T00:24:31;5.85;;;2.60;;
20090;SDS011;10205;49.678;6.560;2023-03-31T00:26:59;6.78;;;1.90;;
20090;SDS011;10205;49.678;6.560;2023-03-31T00:29:28;3.35;;;1.70;;
20090;SDS011;10205;49.678;6.560;2023-03-31T00:31:57;4.20;;;1.63;;
20090;SDS011;10205;49.678;6.560;2023-03-31T00:34:24;4.07;;;1.50;;
20090;SDS011;10205;49.678;6.560;2023-03-31T00:36:53;7.07;;;2.03;;
20090;SDS011;10205;49.678;6.560;2023-03-31T00:39:22;7.50;;;2.25;;
20090;SDS011;10205;49.678;6.560;2023-03-31T00:41:51;7.70;;;1.80;;
20090;SDS011;10205;49.678;6.560;2023-03-31T00:44:19;5.20;;;1.80;;
20090;SDS011;10205;49.678;6.560;2023-03-31T00:46:49;5.25;;;1.90;;
20090;SDS011;10205;49.678;6.560;2023-03-31T00:49:22;5.60;;;1.90;;
20090;SDS011;10205;49.678;6.560;2023-03-31T00:51:58;7.80;;;1.90;;
20090;SDS011;10205;49.678;6.560;2023-03-31T00:54:29;6.80;;;2.13;;
20090;SDS011;10205;49.678;6.560;2023-03-31T00:56:58;8.20;;;2.40;;
20090;SDS011;10205;49.678;6.560;2023-03-31T00:59:28;4.70;;;1.70;;
20090;SDS011;10205;49.678;6.560;2023-03-31T01:01:58;4.93;;;1.88;;
20090;SDS011;10205;49.678;6.560;2023-03-31T01:04:29;6.47;;;1.88;;
20090;SDS011;10205;49.678;6.560;2023-03-31T01:07:06;3.53;;;1.75;;
20090;SDS011;10205;49.678;6.560;2023-03-31T01:09:43;4.05;;;1.65;;
20090;SDS011;10205;49.678;6.560;2023-03-31T01:12:12;4.00;;;1.52;;
20090;SDS011;10205;49.678;6.560;2023-03-31T01:14:43;6.80;;;1.77;;
20090;SDS011;10205;49.678;6.560;2023-03-31T01:17:10;5.82;;;1.88;;
20090;SDS011;10205;49.678;6.560;2023-03-31T01:23:02;5.30;;;1.50;;
20090;SDS011;10205;49.678;6.560;2023-03-31T01:26:10;4.30;;;1.50;;
20090;SDS011;10205;49.678;6.560;2023-03-31T01:29:19;4.20;;;1.50;;
20090;SDS011;10205;49.678;6.560;2023-03-31T01:32:40;8.27;;;1.95;;
20090;SDS011;10205;49.678;6.560;2023-03-31T01:35:53;6.90;;;2.10;;
20090;SDS011;10205;49.678;6.560;2023-03-31T01:42:03;4.25;;;1.73;;
20090;SDS011;10205;49.678;6.560;2023-03-31T01:44:39;4.95;;;1.60;;
20090;SDS011;10205;49.678;6.560;2023-03-31T01:47:13;6.25;;;1.88;;
20090;SDS011;10205;49.678;6.560;2023-03-31T01:49:50;6.90;;;1.77;;
20090;SDS011;10205;49.678;6.560;2023-03-31T01:52:27;4.75;;;1.73;;
20090;SDS011;10205;49.678;6.560;2023-03-31T01:55:06;4.72;;;1.73;;
20090;SDS011;10205;49.678;6.560;2023-03-31T01:57:43;5.00;;;1.58;;
20090;SDS011;10205;49.678;6.560;2023-03-31T02:00:19;5.63;;;1.83;;
20090;SDS011;10205;49.678;6.560;2023-03-31T02:02:54;9.20;;;1.90;;
20090;SDS011;10205;49.678;6.560;2023-03-31T02:05:29;2.53;;;1.30;;
20090;SDS011;10205;49.678;6.560;2023-03-31T02:08:05;6.20;;;1.70;;
20090;SDS011;10205;49.678;6.560;2023-03-31T02:10:39;4.47;;;1.70;;
20090;SDS011;10205;49.678;6.560;2023-03-31T02:13:10;3.63;;;1.65;;
20090;SDS011;10205;49.678;6.560;2023-03-31T02:15:41;3.72;;;1.50;;
20090;SDS011;10205;49.678;6.560;2023-03-31T02:18:14;3.92;;;1.58;;
20090;SDS011;10205;49.678;6.560;2023-03-31T02:20:46;4.60;;;1.60;;
20090;SDS011;10205;49.678;6.560;2023-03-31T02:23:17;4.82;;;1.50;;
20090;SDS011;10205;49.678;6.560;2023-03-31T02:25:50;3.95;;;1.15;;
20090;SDS011;10205;49.678;6.560;2023-03-31T02:28:26;6.25;;;2.03;;
20090;SDS011;10205;49.678;6.560;2023-03-31T02:30:57;2.38;;;1.45;;
20090;SDS011;10205;49.678;6.560;2023-03-31T02:33:38;3.88;;;1.75;;
20090;SDS011;10205;49.678;6.560;2023-03-31T02:36:05;5.72;;;1.52;;
20090;SDS011;10205;49.678;6.560;2023-03-31T02:38:34;2.97;;;1.48;;
20090;SDS011;10205;49.678;6.560;2023-03-31T02:41:08;3.50;;;1.40;;
20090;SDS011;10205;49.678;6.560;2023-03-31T02:43:37;3.15;;;1.50;;
20090;SDS011;10205;49.678;6.560;2023-03-31T02:46:04;4.13;;;1.40;;
20090;SDS011;10205;49.678;6.560;2023-03-31T02:48:32;3.47;;;1.65;;
20090;SDS011;10205;49.678;6.560;2023-03-31T02:51:16;3.40;;;1.38;;
20090;SDS011;10205;49.678;6.560;2023-03-31T02:58:04;2.63;;;1.30;;
20090;SDS011;10205;49.678;6.560;2023-03-31T03:01:13;3.03;;;1.50;;
20090;SDS011;10205;49.678;6.560;2023-03-31T03:03:57;3.42;;;1.42;;
20090;SDS011;10205;49.678;6.560;2023-03-31T03:06:46;4.45;;;1.35;;
20090;SDS011;10205;49.678;6.560;2023-03-31T03:09:26;6.20;;;1.98;;
20090;SDS011;10205;49.678;6.560;2023-03-31T03:12:08;3.40;;;1.73;;
20090;SDS011;10205;49.678;6.560;2023-03-31T03:14:43;4.68;;;1.50;;
20090;SDS011;10205;49.678;6.560;2023-03-31T03:17:19;3.70;;;1.42;;
20090;SDS011;10205;49.678;6.560;2023-03-31T03:19:54;2.35;;;1.25;;
20090;SDS011;10205;49.678;6.560;2023-03-31T03:22:25;2.33;;;1.23;;
20090;SDS011;10205;49.678;6.560;2023-03-31T03:24:53;3.65;;;1.50;;
20090;SDS011;10205;49.678;6.560;2023-03-31T03:27:20;3.58;;;1.60;;
20090;SDS011;10205;49.678;6.560;2023-03-31T03:29:47;3.35;;;1.55;;
20090;SDS011;10205;49.678;6.560;2023-03-31T03:32:15;5.15;;;1.67;;
20090;SDS011;10205;49.678;6.560;2023-03-31T03:34:43;3.80;;;1.40;;
20090;SDS011;10205;49.678;6.560;2023-03-31T03:37:10;2.45;;;1.30;;
20090;SDS011;10205;49.678;6.560;2023-03-31T03:39:37;4.70;;;1.70;;
20090;SDS011;10205;49.678;6.560;2023-03-31T03:42:04;3.70;;;1.20;;
20090;SDS011;10205;49.678;6.560;2023-03-31T03:44:31;4.18;;;1.30;;
20090;SDS011;10205;49.678;6.560;2023-03-31T03:46:59;2.65;;;1.55;;
20090;SDS011;10205;49.678;6.560;2023-03-31T03:49:26;2.58;;;0.90;;
20090;SDS011;10205;49.678;6.560;2023-03-31T03:51:54;3.75;;;1.70;;
20090;SDS011;10205;49.678;6.560;2023-03-31T03:54:22;2.58;;;1.40;;
20090;SDS011;10205;49.678;6.560;2023-03-31T03:56:49;2.13;;;1.25;;
20090;SDS011;10205;49.678;6.560;2023-03-31T03:59:17;4.32;;;1.45;;
20090;SDS011;10205;49.678;6.560;2023-03-31T04:01:44;4.45;;;1.63;;
20090;SDS011;10205;49.678;6.560;2023-03-31T04:04:11;3.05;;;1.42;;
20090;SDS011;10205;49.678;6.560;2023-03-31T04:06:38;6.25;;;1.75;;
20090;SDS011;10205;49.678;6.560;2023-03-31T04:09:06;3.83;;;1.55;;
20090;SDS011;10205;49.678;6.560;2023-03-31T04:11:33;2.08;;;1.20;;
20090;SDS011;10205;49.678;6.560;2023-03-31T04:14:00;4.63;;;1.63;;
20090;SDS011;10205;49.678;6.560;2023-03-31T04:16:28;5.50;;;1.75;;
20090;SDS011;10205;49.678;6.560;2023-03-31T04:18:56;2.90;;;1.40;;
20090;SDS011;10205;49.678;6.560;2023-03-31T04:21:23;3.90;;;1.38;;
20090;SDS011;10205;49.678;6.560;2023-03-31T04:23:51;3.60;;;1.42;;
20090;SDS011;10205;49.678;6.560;2023-03-31T04:26:28;4.30;;;1.40;;
20090;SDS011;10205;49.678;6.560;2023-03-31T04:29:03;2.85;;;1.70;;
20090;SDS011;10205;49.678;6.560;2023-03-31T04:31:31;2.38;;;1.25;;
20090;SDS011;10205;49.678;6.560;2023-03-31T04:34:02;4.60;;;1.67;;
20090;SDS011;10205;49.678;6.560;2023-03-31T04:36:31;4.45;;;1.35;;
20090;SDS011;10205;49.678;6.560;2023-03-31T04:38:59;2.60;;;1.23;;
20090;SDS011;10205;49.678;6.560;2023-03-31T04:41:27;2.28;;;1.23;;
20090;SDS011;10205;49.678;6.560;2023-03-31T04:43:54;2.80;;;1.30;;
20090;SDS011;10205;49.678;6.560;2023-03-31T04:46:21;2.95;;;1.30;;
20090;SDS011;10205;49.678;6.560;2023-03-31T04:48:49;5.45;;;1.88;;
20090;SDS011;10205;49.678;6.560;2023-03-31T04:51:16;3.50;;;1.40;;
20090;SDS011;10205;49.678;6.560;2023-03-31T04:53:44;3.97;;;1.50;;
20090;SDS011;10205;49.678;6.560;2023-03-31T04:56:11;3.25;;;1.58;;
20090;SDS011;10205;49.678;6.560;2023-03-31T04:58:40;2.65;;;1.40;;
20090;SDS011;10205;49.678;6.560;2023-03-31T05:01:08;2.13;;;1.52;;
20090;SDS011;10205;49.678;6.560;2023-03-31T05:03:37;3.92;;;1.92;;
20090;SDS011;10205;49.678;6.560;2023-03-31T05:06:05;3.10;;;1.38;;
20090;SDS011;10205;49.678;6.560;2023-03-31T05:08:33;2.88;;;1.40;;
20090;SDS011;10205;49.678;6.560;2023-03-31T05:11:01;3.90;;;1.85;;
20090;SDS011;10205;49.678;6.560;2023-03-31T05:13:30;3.85;;;1.27;;
20090;SDS011;10205;49.678;6.560;2023-03-31T05:15:58;3.25;;;1.55;;
20090;SDS011;10205;49.678;6.560;2023-03-31T05:18:32;2.67;;;1.48;;
20090;SDS011;10205;49.678;6.560;2023-03-31T05:21:07;2.38;;;1.48;;
20090;SDS011;10205;49.678;6.560;2023-03-31T05:23:38;2.78;;;1.60;;
20090;SDS011;10205;49.678;6.560;2023-03-31T05:26:06;2.90;;;1.40;;
20090;SDS011;10205;49.678;6.560;2023-03-31T05:28:34;2.85;;;1.60;;
20090;SDS011;10205;49.678;6.560;2023-03-31T05:31:03;1.85;;;1.50;;
20090;SDS011;10205;49.678;6.560;2023-03-31T05:33:31;2.85;;;1.55;;
20090;SDS011;10205;49.678;6.560;2023-03-31T05:36:04;1.92;;;1.40;;
20090;SDS011;10205;49.678;6.560;2023-03-31T05:38:32;5.05;;;1.95;;
20090;SDS011;10205;49.678;6.560;2023-03-31T05:40:59;2.60;;;1.60;;
20090;SDS011;10205;49.678;6.560;2023-03-31T05:43:27;5.30;;;1.70;;
20090;SDS011;10205;49.678;6.560;2023-03-31T05:45:54;3.20;;;1.65;;
20090;SDS011;10205;49.678;6.560;2023-03-31T05:48:25;3.55;;;1.95;;
20090;SDS011;10205;49.678;6.560;2023-03-31T05:50:54;2.33;;;1.58;;
20090;SDS011;10205;49.678;6.560;2023-03-31T05:53:23;3.90;;;1.80;;
20090;SDS011;10205;49.678;6.560;2023-03-31T05:55:54;2.15;;;1.77;;
20090;SDS011;10205;49.678;6.560;2023-03-31T05:58:23;2.72;;;1.80;;
20090;SDS011;10205;49.678;6.560;2023-03-31T06:00:58;3.40;;;1.90;;
20090;SDS011;10205;49.678;6.560;2023-03-31T06:03:31;2.40;;;1.52;;
20090;SDS011;10205;49.678;6.560;2023-03-31T06:05:58;2.35;;;1.45;;
20090;SDS011;10205;49.678;6.560;2023-03-31T06:08:26;2.83;;;1.67;;
20090;SDS011;10205;49.678;6.560;2023-03-31T06:10:53;4.03;;;2.22;;
20090;SDS011;10205;49.678;6.560;2023-03-31T06:13:20;3.47;;;1.70;;
20090;SDS011;10205;49.678;6.560;2023-03-31T06:15:53;3.60;;;1.52;;
20090;SDS011;10205;49.678;6.560;2023-03-31T06:18:22;3.33;;;1.80;;
20090;SDS011;10205;49.678;6.560;2023-03-31T06:20:51;3.10;;;1.73;;
20090;SDS011;10205;49.678;6.560;2023-03-31T06:23:18;3.42;;;1.60;;
20090;SDS011;10205;49.678;6.560;2023-03-31T06:25:45;2.47;;;1.52;;
20090;SDS011;10205;49.678;6.560;2023-03-31T06:28:12;4.70;;;1.50;;
20090;SDS011;10205;49.678;6.560;2023-03-31T06:30:40;2.30;;;1.50;;
20090;SDS011;10205;49.678;6.560;2023-03-31T06:33:07;2.22;;;1.40;;
20090;SDS011;10205;49.678;6.560;2023-03-31T06:35:36;2.67;;;1.55;;
20090;SDS011;10205;49.678;6.560;2023-03-31T06:38:05;2.95;;;1.70;;
20090;SDS011;10205;49.678;6.560;2023-03-31T06:40:33;1.38;;;1.27;;
20090;SDS011;10205;49.678;6.560;2023-03-31T06:43:00;3.70;;;1.40;;
20090;SDS011;10205;49.678;6.560;2023-03-31T06:45:27;3.47;;;1.30;;
20090;SDS011;10205;49.678;6.560;2023-03-31T06:47:54;2.40;;;1.60;;
20090;SDS011;10205;49.678;6.560;2023-03-31T06:50:21;2.22;;;1.52;;
20090;SDS011;10205;49.678;6.560;2023-03-31T06:52:48;3.58;;;1.90;;
20090;SDS011;10205;49.678;6.560;2023-03-31T06:55:18;2.88;;;1.30;;
20090;SDS011;10205;49.678;6.560;2023-03-31T06:57:45;1.67;;;1.10;;
20090;SDS011;10205;49.678;6.560;2023-03-31T07:00:13;2.72;;;1.63;;
20090;SDS011;10205;49.678;6.560;2023-03-31T07:02:41;3.90;;;1.77;;
20090;SDS011;10205;49.678;6.560;2023-03-31T07:05:10;4.30;;;1.67;;
20090;SDS011;10205;49.678;6.560;2023-03-31T07:07:37;2.85;;;1.60;;
20090;SDS011;10205;49.678;6.560;2023-03-31T07:10:04;5.35;;;2.15;;
20090;SDS011;10205;49.678;6.560;2023-03-31T07:12:34;3.70;;;1.98;;
20090;SDS011;10205;49.678;6.560;2023-03-31T07:15:01;6.97;;;2.60;;
20090;SDS011;10205;49.678;6.560;2023-03-31T07:17:28;4.90;;;2.38;;
20090;SDS011;10205;49.678;6.560;2023-03-31T07:19:55;7.38;;;2.70;;
20090;SDS011;10205;49.678;6.560;2023-03-31T07:22:22;7.45;;;2.80;;
20090;SDS011;10205;49.678;6.560;2023-03-31T07:24:50;8.38;;;2.47;;
20090;SDS011;10205;49.678;6.560;2023-03-31T07:27:17;7.63;;;2.90;;
20090;SDS011;10205;49.678;6.560;2023-03-31T07:29:45;6.10;;;2.80;;
20090;SDS011;10205;49.678;6.560;2023-03-31T07:32:13;6.30;;;2.70;;
20090;SDS011;10205;49.678;6.560;2023-03-31T07:34:43;12.55;;;3.28;;
20090;SDS011;10205;49.678;6.560;2023-03-31T07:37:10;6.70;;;2.80;;
20090;SDS011;10205;49.678;6.560;2023-03-31T07:39:37;13.07;;;3.40;;
20090;SDS011;10205;49.678;6.560;2023-03-31T07:42:04;6.18;;;2.70;;
20090;SDS011;10205;49.678;6.560;2023-03-31T07:44:32;5.88;;;2.63;;
20090;SDS011;10205;49.678;6.560;2023-03-31T07:47:00;9.27;;;2.60;;
20090;SDS011;10205;49.678;6.560;2023-03-31T07:49:30;8.73;;;2.80;;
20090;SDS011;10205;49.678;6.560;2023-03-31T07:51:58;9.57;;;3.15;;
20090;SDS011;10205;49.678;6.560;2023-03-31T07:54:25;6.25;;;2.85;;
20090;SDS011;10205;49.678;6.560;2023-03-31T07:56:53;14.30;;;3.38;;
20090;SDS011;10205;49.678;6.560;2023-03-31T07:59:20;9.30;;;3.10;;
20090;SDS011;10205;49.678;6.560;2023-03-31T08:01:47;10.38;;;3.00;;
20090;SDS011;10205;49.678;6.560;2023-03-31T08:04:16;9.32;;;2.60;;
20090;SDS011;10205;49.678;6.560;2023-03-31T08:06:43;6.13;;;2.85;;
20090;SDS011;10205;49.678;6.560;2023-03-31T08:09:11;11.48;;;2.85;;
20090;SDS011;10205;49.678;6.560;2023-03-31T08:11:38;9.60;;;3.63;;
20090;SDS011;10205;49.678;6.560;2023-03-31T08:14:05;9.82;;;3.10;;
20090;SDS011;10205;49.678;6.560;2023-03-31T08:16:32;11.68;;;3.47;;
20090;SDS011;10205;49.678;6.560;2023-03-31T08:19:00;5.47;;;2.22;;
20090;SDS011;10205;49.678;6.560;2023-03-31T08:21:28;9.30;;;3.17;;
20090;SDS011;10205;49.678;6.560;2023-03-31T08:23:56;7.50;;;2.92;;
20090;SDS011;10205;49.678;6.560;2023-03-31T08:26:23;9.55;;;3.17;;
20090;SDS011;10205;49.678;6.560;2023-03-31T08:28:51;6.82;;;2.90;;
20090;SDS011;10205;49.678;6.560;2023-03-31T08:31:19;5.57;;;2.22;;
20090;SDS011;10205;49.678;6.560;2023-03-31T08:33:47;5.72;;;2.30;;
20090;SDS011;10205;49.678;6.560;2023-03-31T08:36:15;3.80;;;1.67;;
20090;SDS011;10205;49.678;6.560;2023-03-31T08:38:43;4.15;;;1.65;;
20090;SDS011;10205;49.678;6.560;2023-03-31T08:41:15;2.67;;;1.48;;
20090;SDS011;10205;49.678;6.560;2023-03-31T08:44:13;3.70;;;1.25;;
20090;SDS011;10205;49.678;6.560;2023-03-31T08:46:46;3.72;;;1.73;;
20090;SDS011;10205;49.678;6.560;2023-03-31T08:49:17;4.65;;;1.80;;
20090;SDS011;10205;49.678;6.560;2023-03-31T08:51:47;3.63;;;1.70;;
20090;SDS011;10205;49.678;6.560;2023-03-31T08:54:19;4.95;;;2.05;;
20090;SDS011;10205;49.678;6.560;2023-03-31T08:56:58;4.05;;;2.00;;
20090;SDS011;10205;49.678;6.560;2023-03-31T08:59:28;7.47;;;2.22;;
20090;SDS011;10205;49.678;6.560;2023-03-31T09:01:59;4.28;;;1.80;;
20090;SDS011;10205;49.678;6.560;2023-03-31T09:04:53;6.75;;;2.53;;
20090;SDS011;10205;49.678;6.560;2023-03-31T09:07:49;3.55;;;1.83;;
20090;SDS011;10205;49.678;6.560;2023-03-31T09:10:31;5.40;;;2.28;;
20090;SDS011;10205;49.678;6.560;2023-03-31T09:16:13;5.60;;;1.92;;
20090;SDS011;10205;49.678;6.560;2023-03-31T09:18:42;4.80;;;1.92;;
20090;SDS011;10205;49.678;6.560;2023-03-31T09:21:11;5.70;;;1.92;;
20090;SDS011;10205;49.678;6.560;2023-03-31T09:23:47;7.70;;;2.30;;
20090;SDS011;10205;49.678;6.560;2023-03-31T09:26:24;8.80;;;2.65;;
20090;SDS011;10205;49.678;6.560;2023-03-31T09:29:01;6.78;;;2.75;;
20090;SDS011;10205;49.678;6.560;2023-03-31T09:31:37;7.40;;;2.47;;
20090;SDS011;10205;49.678;6.560;2023-03-31T09:34:10;6.90;;;2.47;;
20090;SDS011;10205;49.678;6.560;2023-03-31T09:36:41;6.45;;;2.35;;
20090;SDS011;10205;49.678;6.560;2023-03-31T09:39:10;4.45;;;2.28;;
20090;SDS011;10205;49.678;6.560;2023-03-31T09:41:42;10.40;;;3.08;;
20090;SDS011;10205;49.678;6.560;2023-03-31T09:44:20;11.63;;;3.03;;
20090;SDS011;10205;49.678;6.560;2023-03-31T09:46:52;10.30;;;2.88;;
20090;SDS011;10205;49.678;6.560;2023-03-31T09:49:21;11.93;;;2.95;;
20090;SDS011;10205;49.678;6.560;2023-03-31T09:51:58;9.63;;;3.00;;
20090;SDS011;10205;49.678;6.560;2023-03-31T09:54:33;14.25;;;2.70;;
20090;SDS011;10205;49.678;6.560;2023-03-31T09:57:13;15.73;;;4.00;;
20090;SDS011;10205;49.678;6.560;2023-03-31T09:59:49;12.57;;;2.78;;
20090;SDS011;10205;49.678;6.560;2023-03-31T10:02:34;8.38;;;2.58;;
20090;SDS011;10205;49.678;6.560;2023-03-31T10:05:04;8.43;;;3.15;;
20090;SDS011;10205;49.678;6.560;2023-03-31T10:07:46;9.40;;;3.95;;
20090;SDS011;10205;49.678;6.560;2023-03-31T10:10:17;9.75;;;3.28;;
20090;SDS011;10205;49.678;6.560;2023-03-31T10:12:57;11.07;;;3.25;;
20090;SDS011;10205;49.678;6.560;2023-03-31T10:15:28;10.60;;;3.60;;
20090;SDS011;10205;49.678;6.560;2023-03-31T10:17:56;8.88;;;2.80;;
20090;SDS011;10205;49.678;6.560;2023-03-31T10:20:29;7.70;;;2.83;;
20090;SDS011;10205;49.678;6.560;2023-03-31T10:23:02;10.77;;;3.45;;
20090;SDS011;10205;49.678;6.560;2023-03-31T10:25:40;8.95;;;2.53;;
20090;SDS011;10205;49.678;6.560;2023-03-31T10:28:10;12.73;;;3.08;;
20090;SDS011;10205;49.678;6.560;2023-03-31T10:30:45;10.27;;;2.72;;
20090;SDS011;10205;49.678;6.560;2023-03-31T10:33:15;11.65;;;2.80;;
20090;SDS011;10205;49.678;6.560;2023-03-31T10:35:49;9.20;;;3.03;;
20090;SDS011;10205;49.678;6.560;2023-03-31T10:38:23;9.63;;;2.53;;
20090;SDS011;10205;49.678;6.560;2023-03-31T10:40:54;11.43;;;3.75;;
20090;SDS011;10205;49.678;6.560;2023-03-31T10:43:26;12.00;;;2.85;;
20090;SDS011;10205;49.678;6.560;2023-03-31T10:45:58;8.70;;;2.40;;
20090;SDS011;10205;49.678;6.560;2023-03-31T10:48:26;9.65;;;3.10;;
20090;SDS011;10205;49.678;6.560;2023-03-31T10:50:57;7.43;;;2.58;;
20090;SDS011;10205;49.678;6.560;2023-03-31T10:53:30;10.95;;;2.97;;
20090;SDS011;10205;49.678;6.560;2023-03-31T10:56:20;9.40;;;2.75;;
20090;SDS011;10205;49.678;6.560;2023-03-31T10:59:09;9.48;;;2.30;;
20090;SDS011;10205;49.678;6.560;2023-03-31T11:02:12;8.38;;;2.83;;
20090;SDS011;10205;49.678;6.560;2023-03-31T11:05:11;6.55;;;2.97;;
20090;SDS011;10205;49.678;6.560;2023-03-31T11:07:49;6.30;;;2.40;;
20090;SDS011;10205;49.678;6.560;2023-03-31T11:10:36;9.35;;;2.53;;
20090;SDS011;10205;49.678;6.560;2023-03-31T11:13:24;7.82;;;2.53;;
20090;SDS011;10205;49.678;6.560;2023-03-31T11:16:03;7.60;;;2.55;;
20090;SDS011;10205;49.678;6.560;2023-03-31T11:21:50;7.68;;;2.22;;
20090;SDS011;10205;49.678;6.560;2023-03-31T11:24:33;8.60;;;2.50;;
20090;SDS011;10205;49.678;6.560;2023-03-31T11:27:23;6.18;;;2.00;;
20090;SDS011;10205;49.678;6.560;2023-03-31T11:30:08;6.65;;;2.05;;
20090;SDS011;10205;49.678;6.560;2023-03-31T11:32:53;6.43;;;1.92;;
20090;SDS011;10205;49.678;6.560;2023-03-31T11:35:44;7.63;;;1.73;;
20090;SDS011;10205;49.678;6.560;2023-03-31T11:38:34;4.50;;;1.80;;
20090;SDS011;10205;49.678;6.560;2023-03-31T11:41:22;6.60;;;2.25;;
20090;SDS011;10205;49.678;6.560;2023-03-31T11:44:00;4.38;;;1.83;;
20090;SDS011;10205;49.678;6.560;2023-03-31T11:46:31;8.07;;;2.03;;
20090;SDS011;10205;49.678;6.560;2023-03-31T11:49:10;4.72;;;1.30;;
20090;SDS011;10205;49.678;6.560;2023-03-31T11:51:46;3.38;;;1.45;;
20090;SDS011;10205;49.678;6.560;2023-03-31T11:54:22;5.97;;;1.58;;
20090;SDS011;10205;49.678;6.560;2023-03-31T11:56:59;4.47;;;1.50;;
20090;SDS011;10205;49.678;6.560;2023-03-31T11:59:35;4.35;;;1.77;;
20090;SDS011;10205;49.678;6.560;2023-03-31T12:02:13;4.10;;;1.55;;
20090;SDS011;10205;49.678;6.560;2023-03-31T12:04:50;4.05;;;1.20;;
20090;SDS011;10205;49.678;6.560;2023-03-31T12:07:22;6.75;;;1.40;;
20090;SDS011;10205;49.678;6.560;2023-03-31T12:09:57;4.22;;;1.63;;
20090;SDS011;10205;49.678;6.560;2023-03-31T12:12:32;4.57;;;1.50;;
20090;SDS011;10205;49.678;6.560;2023-03-31T12:15:07;3.05;;;1.30;;
20090;SDS011;10205;49.678;6.560;2023-03-31T12:17:44;5.97;;;1.50;;
20090;SDS011;10205;49.678;6.560;2023-03-31T12:20:25;5.75;;;1.80;;
20090;SDS011;10205;49.678;6.560;2023-03-31T12:22:59;4.15;;;2.38;;
20090;SDS011;10205;49.678;6.560;2023-03-31T12:25:34;6.72;;;2.20;;
20090;SDS011;10205;49.678;6.560;2023-03-31T12:28:13;5.82;;;1.50;;
20090;SDS011;10205;49.678;6.560;2023-03-31T12:30:43;6.75;;;1.98;;
20090;SDS011;10205;49.678;6.560;2023-03-31T12:33:14;6.72;;;2.03;;
20090;SDS011;10205;49.678;6.560;2023-03-31T12:35:52;5.97;;;1.92;;
20090;SDS011;10205;49.678;6.560;2023-03-31T12:38:49;5.35;;;2.10;;
20090;SDS011;10205;49.678;6.560;2023-03-31T12:41:35;3.78;;;1.55;;
20090;SDS011;10205;49.678;6.560;2023-03-31T12:44:15;4.45;;;1.75;;
20090;SDS011;10205;49.678;6.560;2023-03-31T12:47:04;6.60;;;1.60;;
20090;SDS011;10205;49.678;6.560;2023-03-31T12:49:58;5.55;;;1.80;;
20090;SDS011;10205;49.678;6.560;2023-03-31T12:52:56;3.78;;;1.65;;
20090;SDS011;10205;49.678;6.560;2023-03-31T12:55:35;6.85;;;2.00;;
20090;SDS011;10205;49.678;6.560;2023-03-31T13:01:15;7.85;;;2.13;;
20090;SDS011;10205;49.678;6.560;2023-03-31T13:03:51;6.82;;;2.00;;
20090;SDS011;10205;49.678;6.560;2023-03-31T13:06:52;4.15;;;1.98;;
20090;SDS011;10205;49.678;6.560;2023-03-31T13:09:41;5.63;;;2.13;;
20090;SDS011;10205;49.678;6.560;2023-03-31T13:12:18;5.07;;;1.85;;
20090;SDS011;10205;49.678;6.560;2023-03-31T13:14:48;3.85;;;1.50;;
20090;SDS011;10205;49.678;6.560;2023-03-31T13:17:25;2.95;;;1.35;;
20090;SDS011;10205;49.678;6.560;2023-03-31T13:20:14;1.25;;;1.00;;
20090;SDS011;10205;49.678;6.560;2023-03-31T13:22:58;2.70;;;1.15;;
20090;SDS011;10205;49.678;6.560;2023-03-31T13:25:34;1.58;;;0.85;;
20090;SDS011;10205;49.678;6.560;2023-03-31T13:28:08;3.35;;;1.40;;
20090;SDS011;10205;49.678;6.560;2023-03-31T13:30:44;6.43;;;1.10;;
20090;SDS011;10205;49.678;6.560;2023-03-31T13:33:13;4.18;;;1.20;;
20090;SDS011;10205;49.678;6.560;2023-03-31T13:35:46;4.20;;;1.45;;
20090;SDS011;10205;49.678;6.560;2023-03-31T13:38:21;3.15;;;1.50;;
20090;SDS011;10205;49.678;6.560;2023-03-31T13:41:06;4.75;;;1.50;;
20090;SDS011;10205;49.678;6.560;2023-03-31T13:44:00;5.38;;;1.38;;
20090;SDS011;10205;49.678;6.560;2023-03-31T13:46:59;6.63;;;1.40;;
20090;SDS011;10205;49.678;6.560;2023-03-31T13:50:02;2.30;;;1.08;;
20090;SDS011;10205;49.678;6.560;2023-03-31T13:52:59;4.15;;;1.55;;
20090;SDS011;10205;49.678;6.560;2023-03-31T13:55:52;4.30;;;1.42;;
20090;SDS011;10205;49.678;6.560;2023-03-31T13:58:43;3.65;;;1.17;;
20090;SDS011;10205;49.678;6.560;2023-03-31T14:08:09;5.13;;;1.63;;
20090;SDS011;10205;49.678;6.560;2023-03-31T14:10:41;4.63;;;1.67;;
20090;SDS011;10205;49.678;6.560;2023-03-31T14:13:10;5.38;;;1.90;;
20090;SDS011;10205;49.678;6.560;2023-03-31T14:15:41;5.45;;;1.52;;
20090;SDS011;10205;49.678;6.560;2023-03-31T14:18:15;8.15;;;1.85;;
20090;SDS011;10205;49.678;6.560;2023-03-31T14:20:54;5.05;;;1.58;;
20090;SDS011;10205;49.678;6.560;2023-03-31T14:23:35;6.13;;;1.95;;
20090;SDS011;10205;49.678;6.560;2023-03-31T14:26:20;5.40;;;1.65;;
20090;SDS011;10205;49.678;6.560;2023-03-31T14:29:11;3.83;;;1.48;;
20090;SDS011;10205;49.678;6.560;2023-03-31T14:31:49;6.25;;;1.88;;
20090;SDS011;10205;49.678;6.560;2023-03-31T14:34:36;6.25;;;1.85;;
20090;SDS011;10205;49.678;6.560;2023-03-31T14:37:17;7.80;;;2.10;;
20090;SDS011;10205;49.678;6.560;2023-03-31T14:39:47;7.07;;;2.03;;
20090;SDS011;10205;49.678;6.560;2023-03-31T14:42:19;5.80;;;2.03;;
20090;SDS011;10205;49.678;6.560;2023-03-31T14:44:54;5.63;;;1.70;;
20090;SDS011;10205;49.678;6.560;2023-03-31T14:47:24;4.07;;;1.88;;
20090;SDS011;10205;49.678;6.560;2023-03-31T14:49:59;3.13;;;1.27;;
20090;SDS011;10205;49.678;6.560;2023-03-31T14:52:31;3.50;;;1.35;;
20090;SDS011;10205;49.678;6.560;2023-03-31T14:54:59;4.43;;;1.63;;
20090;SDS011;10205;49.678;6.560;2023-03-31T14:57:28;2.15;;;0.98;;
20090;SDS011;10205;49.678;6.560;2023-03-31T14:59:59;4.47;;;1.50;;
20090;SDS011;10205;49.678;6.560;2023-03-31T15:02:33;7.03;;;1.92;;
20090;SDS011;10205;49.678;6.560;2023-03-31T15:05:07;3.33;;;1.30;;
20090;SDS011;10205;49.678;6.560;2023-03-31T15:07:43;5.03;;;1.85;;
20090;SDS011;10205;49.678;6.560;2023-03-31T15:10:11;4.70;;;1.77;;
20090;SDS011;10205;49.678;6.560;2023-03-31T15:12:46;5.20;;;1.92;;
20090;SDS011;10205;49.678;6.560;2023-03-31T15:15:21;7.05;;;1.70;;
20090;SDS011;10205;49.678;6.560;2023-03-31T15:17:50;5.72;;;1.83;;
20090;SDS011;10205;49.678;6.560;2023-03-31T15:20:24;3.75;;;1.73;;
20090;SDS011;10205;49.678;6.560;2023-03-31T15:22:55;3.38;;;1.30;;
20090;SDS011;10205;49.678;6.560;2023-03-31T15:25:24;4.53;;;1.70;;
20090;SDS011;10205;49.678;6.560;2023-03-31T15:27:59;5.32;;;1.25;;
20090;SDS011;10205;49.678;6.560;2023-03-31T15:30:30;3.65;;;1.17;;
20090;SDS011;10205;49.678;6.560;2023-03-31T15:32:59;4.10;;;1.60;;
20090;SDS011;10205;49.678;6.560;2023-03-31T15:35:28;4.82;;;1.50;;
20090;SDS011;10205;49.678;6.560;2023-03-31T15:37:59;4.47;;;1.90;;
20090;SDS011;10205;49.678;6.560;2023-03-31T15:40:31;8.95;;;1.50;;
20090;SDS011;10205;49.678;6.560;2023-03-31T15:43:04;5.47;;;1.50;;
20090;SDS011;10205;49.678;6.560;2023-03-31T15:45:45;5.20;;;1.98;;
20090;SDS011;10205;49.678;6.560;2023-03-31T15:48:28;6.70;;;2.25;;
20090;SDS011;10205;49.678;6.560;2023-03-31T15:50:59;3.97;;;1.45;;
20090;SDS011;10205;49.678;6.560;2023-03-31T15:53:35;6.15;;;1.95;;
20090;SDS011;10205;49.678;6.560;2023-03-31T15:56:09;3.22;;;1.55;;